Alpha, Illinois
Current Conditions -  °F | °C
As of 11:52 AM on Friday 31 Oct 2014 (Local Time) from KMLI Reporting Station
Few Clouds Few Clouds  
Wind Chill: 35°   Ceiling: Unl
Heat Index: 42°   Visibility: 10mi
Dew Point: 21°   Wind: 14mph
Humidity: 43%   Direction: 10°N
Pressure: 30.34"   Gusts: 28mph
Location:  41.19°N, 90.38°W
Report Text: KMLI 311652Z 01012G24KT 10SM FEW048 06/M06 A3034 RMK AO2 PK WND 04028/1637 SLP277 T00561061 $
Loading
Personal Weather Stations






























Interactive Weather Map
Tropical Storm Tracking
New forecast layout! Learn more

10-Day Weather Forecast

Advertisements
Track Severe Weather on mobile